createdAt,value
2022-08-11T00:00:04.900Z,19.52
2022-08-11T00:01:04.887Z,19.48
2022-08-11T00:02:04.870Z,19.59
2022-08-11T00:03:04.893Z,19.49
2022-08-11T00:04:04.838Z,19.52
2022-08-11T00:05:04.819Z,19.53
2022-08-11T00:06:04.808Z,19.53
2022-08-11T00:07:04.789Z,19.45
2022-08-11T00:08:04.776Z,19.47
2022-08-11T00:09:04.760Z,19.48
2022-08-11T00:10:04.743Z,19.44
2022-08-11T00:11:04.722Z,19.44
2022-08-11T00:12:04.710Z,19.44
2022-08-11T00:13:04.692Z,19.47
2022-08-11T00:14:04.684Z,19.45
2022-08-11T00:15:04.660Z,19.39
2022-08-11T00:16:04.647Z,19.35
2022-08-11T00:17:04.628Z,19.30
2022-08-11T00:18:04.614Z,19.35
2022-08-11T00:19:04.601Z,19.39
2022-08-11T00:20:12.973Z,19.32
2022-08-11T00:21:04.565Z,19.29
2022-08-11T00:22:06.278Z,19.29
2022-08-11T00:23:04.533Z,19.16
2022-08-11T00:24:04.517Z,19.27
2022-08-11T00:25:04.503Z,19.23
2022-08-11T00:26:04.488Z,19.26
2022-08-11T00:27:04.468Z,19.22
2022-08-11T00:28:04.455Z,19.12
2022-08-11T00:29:04.440Z,19.20
2022-08-11T00:30:04.440Z,19.16
2022-08-11T00:31:04.679Z,19.15
2022-08-11T00:32:04.390Z,19.08
2022-08-11T00:33:04.371Z,19.16
2022-08-11T00:34:04.359Z,19.15
2022-08-11T00:35:54.227Z,19.16
2022-08-11T00:36:04.323Z,19.15
2022-08-11T00:37:04.307Z,19.17
2022-08-11T00:38:04.297Z,19.16
2022-08-11T00:39:04.276Z,19.01
2022-08-11T00:40:04.383Z,19.08
2022-08-11T00:41:04.243Z,19.05
2022-08-11T00:42:04.229Z,19.00
2022-08-11T00:43:04.210Z,18.97
2022-08-11T00:44:04.196Z,19.04
2022-08-11T00:45:04.178Z,18.89
2022-08-11T00:46:04.163Z,18.91
2022-08-11T00:47:04.146Z,18.88
2022-08-11T00:48:04.131Z,18.92
2022-08-11T00:49:04.115Z,18.92
2022-08-11T00:50:04.101Z,18.94
2022-08-11T00:51:04.080Z,18.89
2022-08-11T00:52:06.227Z,18.96
2022-08-11T00:53:04.050Z,18.91
2022-08-11T00:54:04.037Z,18.85
2022-08-11T00:55:04.020Z,18.83
2022-08-11T00:56:04.015Z,18.81
2022-08-11T00:57:03.992Z,18.79
2022-08-11T00:58:03.973Z,18.74
2022-08-11T00:59:03.949Z,18.79
2022-08-11T01:00:03.997Z,18.83
2022-08-11T01:01:03.979Z,18.76
2022-08-11T01:02:03.903Z,18.82
2022-08-11T01:03:03.886Z,18.83
2022-08-11T01:04:03.873Z,18.76
2022-08-11T01:05:03.851Z,18.82
2022-08-11T01:06:03.840Z,18.74
2022-08-11T01:07:03.823Z,18.82
2022-08-11T01:08:03.806Z,18.79
2022-08-11T01:09:03.789Z,18.78
2022-08-11T01:10:07.143Z,18.83
2022-08-11T01:11:03.755Z,18.76
2022-08-11T01:12:03.741Z,18.71
2022-08-11T01:13:03.725Z,18.79
2022-08-11T01:14:03.708Z,18.73
2022-08-11T01:15:03.690Z,18.73
2022-08-11T01:16:03.677Z,18.74
2022-08-11T01:17:03.662Z,18.74
2022-08-11T01:18:03.642Z,18.71
2022-08-11T01:19:03.623Z,18.70
2022-08-11T01:20:45.207Z,18.68
2022-08-11T01:21:03.593Z,18.64
2022-08-11T01:22:03.578Z,18.67
2022-08-11T01:23:03.557Z,18.70
2022-08-11T01:24:03.543Z,18.78
2022-08-11T01:25:03.529Z,18.68
2022-08-11T01:26:03.512Z,18.60
2022-08-11T01:27:03.492Z,18.70
2022-08-11T01:28:03.480Z,18.58
2022-08-11T01:29:03.462Z,18.61
2022-08-11T01:30:03.448Z,18.58
2022-08-11T01:31:03.427Z,18.52
2022-08-11T01:32:03.414Z,18.57
2022-08-11T01:33:03.395Z,18.60
2022-08-11T01:34:03.381Z,18.45
2022-08-11T01:35:03.364Z,18.55
2022-08-11T01:36:03.345Z,18.49
2022-08-11T01:37:03.332Z,18.53
2022-08-11T01:38:03.316Z,18.42
2022-08-11T01:39:03.297Z,18.42
2022-08-11T01:40:03.282Z,18.36
2022-08-11T01:41:03.275Z,18.33
2022-08-11T01:42:03.250Z,18.37
2022-08-11T01:43:03.230Z,18.33
2022-08-11T01:44:03.218Z,18.34
2022-08-11T01:45:03.200Z,18.30
2022-08-11T01:46:03.185Z,18.27
2022-08-11T01:47:03.164Z,18.23
2022-08-11T01:48:03.151Z,18.21
2022-08-11T01:50:07.248Z,18.23
2022-08-11T01:50:08.683Z,18.18
2022-08-11T01:51:03.099Z,18.16
2022-08-11T01:52:03.084Z,18.24
2022-08-11T01:53:03.066Z,18.23
2022-08-11T01:54:03.053Z,18.24
2022-08-11T01:55:03.037Z,18.19
2022-08-11T01:56:03.016Z,18.23
2022-08-11T01:57:02.999Z,18.16
2022-08-11T01:58:02.987Z,18.19
2022-08-11T01:59:02.966Z,18.19
2022-08-11T02:00:02.951Z,18.18
2022-08-11T02:01:03.024Z,18.16
2022-08-11T02:02:02.923Z,18.19
2022-08-11T02:03:02.900Z,18.12
2022-08-11T02:04:02.882Z,18.11
2022-08-11T02:05:02.873Z,18.13
2022-08-11T02:06:02.857Z,18.16
2022-08-11T02:07:02.839Z,18.12
2022-08-11T02:08:02.819Z,18.12
2022-08-11T02:09:02.804Z,18.09
2022-08-11T02:10:02.783Z,18.11
2022-08-11T02:11:02.769Z,18.15
2022-08-11T02:12:02.751Z,18.12
2022-08-11T02:13:02.737Z,18.09
2022-08-11T02:14:02.718Z,18.11
2022-08-11T02:15:05.193Z,18.03
2022-08-11T02:16:02.684Z,18.00
2022-08-11T02:17:02.670Z,18.05
2022-08-11T02:18:02.655Z,18.05
2022-08-11T02:19:02.633Z,18.00
2022-08-11T02:20:02.617Z,17.94
2022-08-11T02:21:02.601Z,18.02
2022-08-11T02:22:02.585Z,18.00
2022-08-11T02:23:02.568Z,17.98
2022-08-11T02:24:05.344Z,18.00
2022-08-11T02:25:02.544Z,18.00
2022-08-11T02:26:02.518Z,17.93
2022-08-11T02:27:02.501Z,17.97
2022-08-11T02:28:02.483Z,17.82
2022-08-11T02:29:02.471Z,17.91
2022-08-11T02:30:02.452Z,17.79
2022-08-11T02:31:02.436Z,17.79
2022-08-11T02:32:14.226Z,17.75
2022-08-11T02:33:02.410Z,17.78
2022-08-11T02:34:02.384Z,17.75
2022-08-11T02:35:02.371Z,17.87
2022-08-11T02:36:02.350Z,17.75
2022-08-11T02:37:02.337Z,17.79
2022-08-11T02:38:02.317Z,17.87
2022-08-11T02:39:02.300Z,17.72
2022-08-11T02:40:02.283Z,17.84
2022-08-11T02:41:02.272Z,17.72
2022-08-11T02:42:02.249Z,17.75
2022-08-11T02:43:02.239Z,17.79
2022-08-11T02:44:02.217Z,17.76
2022-08-11T02:45:02.198Z,17.75
2022-08-11T02:46:02.183Z,17.66
2022-08-11T02:47:02.169Z,17.72
2022-08-11T02:48:02.147Z,17.63
2022-08-11T02:49:02.134Z,17.69
2022-08-11T02:50:07.389Z,17.73
2022-08-11T02:51:02.099Z,17.76
2022-08-11T02:52:02.082Z,17.78
2022-08-11T02:53:02.066Z,17.79
2022-08-11T02:54:02.048Z,17.75
2022-08-11T02:55:02.033Z,17.79
2022-08-11T02:56:02.012Z,17.73
2022-08-11T02:57:01.998Z,17.72
2022-08-11T02:58:01.980Z,17.79
2022-08-11T02:59:01.965Z,17.82
2022-08-11T03:00:01.948Z,17.76
2022-08-11T03:01:01.934Z,17.84
2022-08-11T03:02:05.271Z,17.72
2022-08-11T03:03:01.897Z,17.76
2022-08-11T03:04:01.877Z,17.76
2022-08-11T03:05:01.864Z,17.76
2022-08-11T03:06:01.847Z,17.78
2022-08-11T03:07:01.828Z,17.78
2022-08-11T03:08:01.810Z,17.82
2022-08-11T03:09:01.797Z,17.78
2022-08-11T03:10:01.777Z,17.69
2022-08-11T03:11:01.765Z,17.73
2022-08-11T03:12:01.744Z,17.57
2022-08-11T03:13:01.730Z,17.68
2022-08-11T03:14:01.711Z,17.65
2022-08-11T03:15:01.699Z,17.71
2022-08-11T03:16:01.678Z,17.66
2022-08-11T03:17:01.660Z,17.65
2022-08-11T03:18:01.642Z,17.54
2022-08-11T03:19:01.627Z,17.59
2022-08-11T03:20:01.608Z,17.57
2022-08-11T03:21:01.593Z,17.54
2022-08-11T03:22:03.432Z,17.54
2022-08-11T03:23:01.561Z,17.56
2022-08-11T03:24:01.546Z,17.53
2022-08-11T03:25:01.529Z,17.53
2022-08-11T03:26:01.511Z,17.54
2022-08-11T03:27:01.494Z,17.42
2022-08-11T03:28:02.678Z,17.44
2022-08-11T03:29:01.456Z,17.46
2022-08-11T03:30:01.438Z,17.46
2022-08-11T03:31:01.421Z,17.35
2022-08-11T03:32:01.407Z,17.42
2022-08-11T03:33:01.590Z,17.38
2022-08-11T03:34:05.680Z,17.34
2022-08-11T03:35:01.383Z,17.30
2022-08-11T03:36:01.336Z,17.32
2022-08-11T03:37:16.326Z,17.38
2022-08-11T03:38:01.302Z,17.38
2022-08-11T03:39:01.287Z,17.35
2022-08-11T03:40:01.361Z,17.39
2022-08-11T03:42:05.914Z,17.39
2022-08-11T03:43:01.218Z,17.38
2022-08-11T03:44:01.204Z,17.31
2022-08-11T03:45:01.210Z,17.37
2022-08-11T03:46:01.199Z,17.37
2022-08-11T03:47:01.150Z,17.39
2022-08-11T03:48:01.169Z,17.30
2022-08-11T03:50:01.097Z,17.31
2022-08-11T03:51:01.115Z,17.32
2022-08-11T03:52:01.068Z,17.32
2022-08-11T03:54:01.031Z,17.31
2022-08-11T03:55:01.062Z,17.27
2022-08-11T03:56:01.027Z,17.31
2022-08-11T03:57:01.211Z,17.23
2022-08-11T03:58:00.992Z,17.37
2022-08-11T03:59:00.946Z,17.32
2022-08-11T04:00:01.536Z,17.30
2022-08-11T04:01:00.938Z,17.30
2022-08-11T04:02:00.971Z,17.28
2022-08-11T04:03:01.078Z,17.28
2022-08-11T04:06:00.857Z,17.19
2022-08-11T04:07:00.837Z,17.20
2022-08-11T04:08:00.826Z,17.28
2022-08-11T04:09:00.803Z,17.17
2022-08-11T04:10:00.786Z,17.17
2022-08-11T04:11:00.764Z,17.16
2022-08-11T04:13:00.732Z,17.20
2022-08-11T04:14:00.690Z,17.17
2022-08-11T04:15:00.671Z,17.16
2022-08-11T04:16:00.655Z,17.22
2022-08-11T04:17:00.638Z,17.22
2022-08-11T04:18:00.618Z,17.22
2022-08-11T04:19:00.610Z,17.27
2022-08-11T04:20:00.585Z,17.24
2022-08-11T04:21:00.597Z,17.23
2022-08-11T04:22:00.756Z,17.13
2022-08-11T04:24:36.903Z,17.09
2022-08-11T04:25:00.500Z,17.07
2022-08-11T04:26:00.484Z,17.04
2022-08-11T04:27:01.801Z,17.07
2022-08-11T04:28:00.450Z,16.98
2022-08-11T04:29:00.431Z,16.99
2022-08-11T04:30:03.223Z,16.98
2022-08-11T04:31:00.397Z,17.01
2022-08-11T04:32:00.380Z,17.02
2022-08-11T04:33:00.361Z,17.07
2022-08-11T04:34:00.348Z,17.12
2022-08-11T04:35:00.326Z,17.02
2022-08-11T04:36:00.353Z,17.09
2022-08-11T04:37:00.349Z,17.10
2022-08-11T04:38:00.278Z,17.16
2022-08-11T04:39:00.255Z,17.23
2022-08-11T04:40:00.243Z,17.24
2022-08-11T04:41:00.277Z,17.17
2022-08-11T04:42:00.209Z,17.19
2022-08-11T04:43:00.188Z,17.14
2022-08-11T04:44:06.027Z,17.14
2022-08-11T04:45:00.158Z,17.19
2022-08-11T04:46:00.139Z,17.12
2022-08-11T04:47:00.120Z,17.23
2022-08-11T04:48:01.869Z,17.13
2022-08-11T04:49:00.091Z,17.16
2022-08-11T04:50:00.074Z,17.22
2022-08-11T04:51:08.692Z,17.22
2022-08-11T04:52:00.039Z,17.22
2022-08-11T04:53:00.018Z,17.24
2022-08-11T04:54:00.008Z,17.19
2022-08-11T04:54:59.981Z,17.34
2022-08-11T04:55:59.965Z,17.34
2022-08-11T04:56:59.948Z,17.30
2022-08-11T04:57:59.936Z,17.27
2022-08-11T04:58:59.912Z,17.30
2022-08-11T04:59:59.899Z,17.31
2022-08-11T05:00:59.880Z,17.41
2022-08-11T05:01:59.952Z,17.38
2022-08-11T05:02:59.844Z,17.37
2022-08-11T05:03:59.831Z,17.35
2022-08-11T05:04:59.814Z,17.37
2022-08-11T05:05:59.797Z,17.39
2022-08-11T05:06:59.780Z,17.37
2022-08-11T05:07:59.759Z,17.42
2022-08-11T05:08:59.740Z,17.38
2022-08-11T05:09:59.728Z,17.38
2022-08-11T05:10:59.706Z,17.41
2022-08-11T05:12:01.705Z,17.38
2022-08-11T05:12:59.671Z,17.42
2022-08-11T05:13:59.657Z,17.49
2022-08-11T05:14:59.636Z,17.52
2022-08-11T05:15:59.623Z,17.53
2022-08-11T05:16:59.606Z,17.53
2022-08-11T05:17:59.589Z,17.56
2022-08-11T05:18:59.568Z,17.57
2022-08-11T05:19:59.553Z,17.59
2022-08-11T05:21:04.341Z,17.54
2022-08-11T05:21:59.518Z,17.63
2022-08-11T05:22:59.501Z,17.65
2022-08-11T05:23:59.485Z,17.66
2022-08-11T05:24:59.466Z,17.66
2022-08-11T05:26:44.141Z,17.68
2022-08-11T05:26:59.431Z,17.69
2022-08-11T05:27:59.417Z,17.76
2022-08-11T05:28:59.396Z,17.78
2022-08-11T05:29:59.381Z,17.82
2022-08-11T05:30:59.363Z,17.73
2022-08-11T05:31:59.347Z,17.73
2022-08-11T05:33:01.970Z,17.84
2022-08-11T05:33:59.313Z,17.88
2022-08-11T05:34:59.292Z,17.91
2022-08-11T05:36:01.747Z,18.05
2022-08-11T05:37:23.760Z,18.03
2022-08-11T05:37:59.246Z,18.06
2022-08-11T05:38:59.224Z,17.98
2022-08-11T05:39:59.297Z,18.06
2022-08-11T05:41:00.070Z,18.08
2022-08-11T05:41:59.173Z,18.08
2022-08-11T05:42:59.156Z,18.16
2022-08-11T05:44:20.147Z,18.21
2022-08-11T05:44:59.122Z,18.21
2022-08-11T05:46:04.526Z,18.11
2022-08-11T05:46:59.087Z,18.18
2022-08-11T05:47:59.072Z,18.23
2022-08-11T05:48:59.053Z,18.26
2022-08-11T05:49:59.037Z,18.28
2022-08-11T05:50:59.021Z,18.31
2022-08-11T05:52:04.889Z,18.48
2022-08-11T05:52:58.984Z,18.42
2022-08-11T05:53:58.967Z,18.37
2022-08-11T05:54:58.952Z,18.43
2022-08-11T05:56:03.061Z,18.52
2022-08-11T05:56:59.068Z,18.57
2022-08-11T05:57:58.900Z,18.58
2022-08-11T05:58:58.883Z,18.58
2022-08-11T05:59:58.865Z,18.63
2022-08-11T06:00:58.848Z,18.61
2022-08-11T06:01:58.874Z,18.68
2022-08-11T06:02:58.813Z,18.79
2022-08-11T06:03:59.006Z,18.83
2022-08-11T06:04:58.785Z,18.83
2022-08-11T06:05:58.763Z,18.89
2022-08-11T06:06:58.746Z,18.96
2022-08-11T06:07:58.728Z,18.97
2022-08-11T06:08:58.713Z,19.01
2022-08-11T06:09:58.697Z,19.05
2022-08-11T06:10:58.676Z,19.09
2022-08-11T06:11:58.662Z,19.20
2022-08-11T06:12:58.643Z,19.11
2022-08-11T06:13:58.626Z,19.23
2022-08-11T06:14:58.610Z,19.24
2022-08-11T06:15:58.593Z,19.27
2022-08-11T06:16:58.576Z,19.35
2022-08-11T06:17:58.560Z,19.37
2022-08-11T06:18:58.541Z,19.47
2022-08-11T06:20:05.542Z,19.48
2022-08-11T06:20:58.507Z,19.53
2022-08-11T06:21:58.493Z,19.49
2022-08-11T06:22:58.477Z,19.55
2022-08-11T06:23:58.455Z,19.62
2022-08-11T06:24:58.441Z,19.78
2022-08-11T06:25:58.423Z,19.67
2022-08-11T06:27:14.074Z,19.71
2022-08-11T06:27:58.388Z,19.71
2022-08-11T06:28:58.374Z,19.87
2022-08-11T06:29:58.356Z,19.81
2022-08-11T06:30:58.342Z,19.77
2022-08-11T06:31:58.323Z,19.92
2022-08-11T06:32:58.306Z,19.99
2022-08-11T06:33:58.288Z,19.97
2022-08-11T06:34:58.271Z,20.07
2022-08-11T06:35:58.254Z,20.11
2022-08-11T06:36:58.249Z,20.14
2022-08-11T06:37:58.823Z,20.17
2022-08-11T06:38:58.205Z,20.18
2022-08-11T06:39:58.222Z,20.19
2022-08-11T06:40:58.174Z,20.21
2022-08-11T06:41:58.156Z,20.26
2022-08-11T06:42:58.140Z,20.24
2022-08-11T06:44:02.003Z,20.29
2022-08-11T06:44:58.104Z,20.33
2022-08-11T06:45:58.087Z,20.39
2022-08-11T06:46:58.074Z,20.37
2022-08-11T06:47:58.053Z,20.48
2022-08-11T06:48:58.044Z,20.52
2022-08-11T06:49:58.019Z,20.50
2022-08-11T06:50:58.007Z,20.40
2022-08-11T06:52:00.741Z,20.46
2022-08-11T06:52:57.974Z,20.60
2022-08-11T06:54:04.327Z,20.58
2022-08-11T06:54:57.939Z,20.64
2022-08-11T06:55:59.036Z,20.60
2022-08-11T06:57:26.262Z,20.75
2022-08-11T06:57:57.888Z,20.70
2022-08-11T06:58:57.873Z,20.77
2022-08-11T06:59:57.854Z,20.89
2022-08-11T07:00:57.852Z,20.83
2022-08-11T07:01:57.872Z,20.90
2022-08-11T07:02:57.807Z,20.95
2022-08-11T07:03:57.788Z,21.00
2022-08-11T07:04:57.776Z,21.03
2022-08-11T07:05:57.756Z,21.05
2022-08-11T07:06:57.741Z,21.10
2022-08-11T07:07:57.721Z,21.19
2022-08-11T07:08:57.710Z,21.14
2022-08-11T07:09:57.689Z,21.37
2022-08-11T07:10:57.674Z,21.40
2022-08-11T07:11:57.657Z,21.48
2022-08-11T07:12:57.643Z,21.58
2022-08-11T07:13:57.625Z,21.59
2022-08-11T07:15:00.213Z,21.51
2022-08-11T07:16:12.619Z,21.65
2022-08-11T07:16:57.576Z,21.66
2022-08-11T07:17:57.558Z,21.66
2022-08-11T07:18:57.543Z,21.77
2022-08-11T07:19:57.524Z,21.77
2022-08-11T07:21:01.885Z,21.85
2022-08-11T07:22:02.565Z,21.88
2022-08-11T07:22:57.479Z,21.96
2022-08-11T07:23:57.461Z,22.10
2022-08-11T07:24:59.655Z,22.12
2022-08-11T07:25:57.434Z,22.22
2022-08-11T07:26:57.414Z,22.23
2022-08-11T07:27:57.395Z,22.23
2022-08-11T07:28:57.382Z,22.22
2022-08-11T07:29:57.365Z,22.19
2022-08-11T07:30:57.349Z,22.21
2022-08-11T07:31:57.332Z,22.25
2022-08-11T07:32:57.317Z,22.18
2022-08-11T07:34:08.409Z,22.18
2022-08-11T07:34:57.290Z,22.28
2022-08-11T07:35:57.268Z,22.14
2022-08-11T07:36:57.253Z,22.34
2022-08-11T07:38:01.707Z,22.30
2022-08-11T07:38:57.219Z,22.33
2022-08-11T07:39:57.323Z,22.36
2022-08-11T07:40:57.185Z,22.40
2022-08-11T07:41:57.304Z,22.44
2022-08-11T07:42:57.155Z,22.52
2022-08-11T07:43:57.146Z,22.51
2022-08-11T07:44:57.132Z,22.67
2022-08-11T07:45:57.103Z,22.67
2022-08-11T07:46:57.090Z,22.73
2022-08-11T07:47:57.070Z,22.70
2022-08-11T07:48:57.061Z,22.73
2022-08-11T07:49:57.039Z,22.73
2022-08-11T07:50:57.024Z,22.71
2022-08-11T07:51:57.011Z,22.78
2022-08-11T07:52:56.994Z,22.81
2022-08-11T07:54:15.384Z,22.81
2022-08-11T07:54:56.963Z,22.81
2022-08-11T07:55:56.944Z,22.92
2022-08-11T07:57:09.332Z,22.84
2022-08-11T07:58:15.324Z,22.92
2022-08-11T07:59:04.286Z,22.96
2022-08-11T08:00:04.232Z,22.99
2022-08-11T08:01:01.291Z,23.08
2022-08-11T08:01:56.895Z,23.10
2022-08-11T08:02:56.835Z,23.14
2022-08-11T08:03:56.819Z,23.20
2022-08-11T08:04:56.803Z,23.16
2022-08-11T08:05:56.785Z,23.17
2022-08-11T08:06:56.769Z,23.37
2022-08-11T08:07:56.754Z,23.37
2022-08-11T08:08:56.740Z,23.44
2022-08-11T08:09:56.725Z,23.54
2022-08-11T08:10:56.710Z,23.62
2022-08-11T08:11:56.689Z,23.62
2022-08-11T08:12:56.680Z,23.67
2022-08-11T08:13:56.660Z,23.69
2022-08-11T08:14:56.667Z,23.64
2022-08-11T08:15:56.627Z,23.71
2022-08-11T08:16:56.617Z,23.79
2022-08-11T08:18:20.976Z,23.76
2022-08-11T08:18:56.586Z,23.79
2022-08-11T08:19:56.565Z,23.76
2022-08-11T08:20:56.554Z,23.81
2022-08-11T08:22:05.071Z,23.79
2022-08-11T08:22:56.519Z,23.85
2022-08-11T08:23:56.694Z,23.88
2022-08-11T08:24:56.490Z,23.89
2022-08-11T08:25:56.471Z,23.96
2022-08-11T08:26:56.455Z,23.96
2022-08-11T08:27:56.443Z,24.07
2022-08-11T08:28:56.424Z,24.10
2022-08-11T08:29:56.409Z,24.03
2022-08-11T08:30:56.392Z,24.14
2022-08-11T08:31:56.378Z,24.09
2022-08-11T08:32:56.363Z,24.10
2022-08-11T08:33:56.347Z,24.09
2022-08-11T08:34:56.329Z,24.06
2022-08-11T08:35:56.360Z,24.10
2022-08-11T08:36:56.300Z,24.09
2022-08-11T08:37:56.283Z,24.14
2022-08-11T08:38:56.270Z,24.06
2022-08-11T08:39:56.322Z,24.11
2022-08-11T08:40:56.797Z,24.24
2022-08-11T08:41:56.224Z,24.28
2022-08-11T08:42:56.206Z,24.29
2022-08-11T08:43:59.876Z,24.28
2022-08-11T08:44:56.177Z,24.43
2022-08-11T08:45:56.160Z,24.56
2022-08-11T08:46:56.146Z,24.66
2022-08-11T08:47:56.129Z,24.56
2022-08-11T08:48:56.114Z,24.62
2022-08-11T08:49:56.100Z,24.59
2022-08-11T08:50:56.084Z,24.71
2022-08-11T08:52:02.005Z,24.71
2022-08-11T08:52:56.056Z,24.81
2022-08-11T08:53:56.610Z,24.77
2022-08-11T08:54:56.025Z,24.86
2022-08-11T08:55:56.007Z,24.92
2022-08-11T08:56:55.992Z,25.01
2022-08-11T08:57:55.978Z,25.15
2022-08-11T08:58:55.962Z,25.06
2022-08-11T08:59:55.945Z,25.21
2022-08-11T09:00:55.982Z,25.24
2022-08-11T09:01:55.917Z,25.21
2022-08-11T09:02:55.902Z,25.33
2022-08-11T09:04:06.752Z,25.34
2022-08-11T09:04:55.876Z,25.31
2022-08-11T09:05:55.858Z,25.31
2022-08-11T09:06:55.922Z,25.37
2022-08-11T09:07:55.826Z,25.29
2022-08-11T09:08:55.811Z,25.37
2022-08-11T09:09:55.795Z,25.39
2022-08-11T09:10:55.783Z,25.41
2022-08-11T09:11:55.765Z,25.43
2022-08-11T09:12:55.753Z,25.48
2022-08-11T09:14:05.563Z,25.56
2022-08-11T09:14:55.722Z,25.56
2022-08-11T09:15:56.469Z,25.59
2022-08-11T09:16:55.691Z,25.68
2022-08-11T09:17:55.678Z,25.66
2022-08-11T09:18:55.661Z,25.78
2022-08-11T09:19:56.650Z,25.74
2022-08-11T09:20:55.631Z,25.77
2022-08-11T09:21:55.616Z,25.76
2022-08-11T09:23:29.629Z,25.81
2022-08-11T09:24:07.456Z,25.80
2022-08-11T09:24:55.576Z,25.91
2022-08-11T09:25:55.556Z,25.77
2022-08-11T09:26:55.543Z,25.77
2022-08-11T09:27:55.526Z,25.76
2022-08-11T09:28:55.513Z,25.80
2022-08-11T09:29:55.510Z,25.78
2022-08-11T09:30:55.484Z,25.81
2022-08-11T09:31:55.467Z,25.88
2022-08-11T09:32:55.453Z,25.99
2022-08-11T09:33:55.512Z,26.04
2022-08-11T09:34:55.424Z,26.11
2022-08-11T09:35:55.408Z,26.13
2022-08-11T09:36:55.394Z,26.26
2022-08-11T09:37:56.600Z,26.22
2022-08-11T09:38:55.363Z,26.23
2022-08-11T09:39:55.430Z,26.18
2022-08-11T09:40:56.995Z,26.18
2022-08-11T09:42:00.441Z,26.23
2022-08-11T09:42:55.305Z,26.36
2022-08-11T09:43:55.290Z,26.29
2022-08-11T09:44:55.279Z,26.30
2022-08-11T09:45:55.265Z,26.37
2022-08-11T09:46:55.249Z,26.45
2022-08-11T09:47:55.231Z,26.45
2022-08-11T09:48:55.218Z,26.59
2022-08-11T09:49:55.206Z,26.73
2022-08-11T09:50:55.191Z,26.79
2022-08-11T09:52:04.843Z,26.83
2022-08-11T09:53:35.058Z,27.00
2022-08-11T09:54:03.713Z,27.20
2022-08-11T09:54:55.131Z,27.43
2022-08-11T09:55:55.117Z,27.61
2022-08-11T09:56:55.104Z,27.88
2022-08-11T09:57:55.243Z,28.18
2022-08-11T09:58:55.077Z,28.18
2022-08-11T10:00:12.479Z,28.28
2022-08-11T10:00:55.112Z,28.43
2022-08-11T10:01:55.034Z,28.43
2022-08-11T10:02:55.016Z,28.47
2022-08-11T10:03:55.002Z,28.52
2022-08-11T10:04:54.990Z,28.40
2022-08-11T10:05:54.975Z,28.62
2022-08-11T10:06:55.418Z,28.83
2022-08-11T10:07:54.951Z,28.86
2022-08-11T10:08:54.935Z,29.15
2022-08-11T10:09:54.922Z,29.22
2022-08-11T10:10:54.909Z,29.37
2022-08-11T10:11:55.508Z,29.59
2022-08-11T10:12:54.879Z,29.84
2022-08-11T10:14:31.532Z,30.03
2022-08-11T10:14:54.853Z,30.17
2022-08-11T10:16:00.107Z,30.05
2022-08-11T10:16:54.825Z,30.27
2022-08-11T10:17:54.811Z,30.40
2022-08-11T10:18:54.799Z,30.33
2022-08-11T10:20:04.281Z,30.48
2022-08-11T10:20:54.773Z,30.51
2022-08-11T10:21:54.757Z,30.59
2022-08-11T10:22:54.747Z,30.61
2022-08-11T10:24:00.949Z,30.51
2022-08-11T10:24:54.724Z,30.73
2022-08-11T10:25:54.711Z,30.81
2022-08-11T10:26:55.031Z,30.95
2022-08-11T10:28:17.786Z,31.04
2022-08-11T10:29:11.920Z,31.23
2022-08-11T10:29:54.656Z,31.37
2022-08-11T10:30:54.642Z,31.44
2022-08-11T10:31:57.953Z,31.62
2022-08-11T10:32:58.647Z,31.70
2022-08-11T10:33:59.013Z,31.73
2022-08-11T10:34:57.898Z,31.74
2022-08-11T10:35:54.578Z,31.93
2022-08-11T10:36:54.567Z,31.86
2022-08-11T10:38:08.522Z,31.90
2022-08-11T10:38:54.539Z,32.01
2022-08-11T10:39:54.602Z,31.95
2022-08-11T10:40:54.515Z,32.02
2022-08-11T10:42:06.070Z,32.08
2022-08-11T10:42:58.212Z,32.19
2022-08-11T10:44:02.716Z,32.20
2022-08-11T10:44:54.463Z,32.37
2022-08-11T10:45:54.453Z,32.39
2022-08-11T10:46:54.439Z,32.59
2022-08-11T10:47:54.431Z,32.59
2022-08-11T10:48:54.414Z,32.57
2022-08-11T10:49:54.404Z,32.41
2022-08-11T10:50:54.389Z,32.41
2022-08-11T10:51:54.380Z,32.31
2022-08-11T10:52:54.366Z,32.17
2022-08-11T10:53:54.356Z,31.79
2022-08-11T10:54:54.339Z,31.44
2022-08-11T10:55:54.338Z,31.13
2022-08-11T10:56:54.318Z,31.22
2022-08-11T10:58:04.910Z,31.41
2022-08-11T10:58:54.297Z,31.64
2022-08-11T10:59:54.285Z,31.82
2022-08-11T11:00:54.289Z,31.85
2022-08-11T11:01:54.261Z,32.08
2022-08-11T11:03:23.160Z,32.16
2022-08-11T11:03:54.239Z,32.27
2022-08-11T11:04:54.221Z,32.42
2022-08-11T11:06:27.566Z,32.57
2022-08-11T11:06:54.282Z,32.78
2022-08-11T11:07:54.188Z,32.79
2022-08-11T11:08:57.561Z,33.00
2022-08-11T11:09:54.166Z,32.97
2022-08-11T11:10:54.149Z,33.03
2022-08-11T11:11:54.143Z,33.03
2022-08-11T11:12:54.127Z,33.12
2022-08-11T11:13:55.503Z,33.10
2022-08-11T11:14:58.802Z,33.00
2022-08-11T11:15:54.093Z,33.01
2022-08-11T11:16:54.081Z,33.00
2022-08-11T11:17:54.072Z,32.97
2022-08-11T11:19:00.974Z,32.86
2022-08-11T11:19:54.045Z,32.81
2022-08-11T11:20:54.038Z,32.60
2022-08-11T11:21:54.023Z,32.56
2022-08-11T11:22:54.010Z,32.44
2022-08-11T11:23:54.002Z,32.31
2022-08-11T11:24:53.988Z,32.27
2022-08-11T11:25:57.137Z,32.26
2022-08-11T11:26:53.963Z,32.12
2022-08-11T11:27:53.953Z,32.16
2022-08-11T11:28:53.940Z,32.11
2022-08-11T11:29:53.929Z,31.95
2022-08-11T11:30:53.914Z,31.81
2022-08-11T11:31:53.907Z,31.66
2022-08-11T11:32:53.891Z,31.57
2022-08-11T11:34:06.819Z,31.48
2022-08-11T11:34:54.064Z,31.36
2022-08-11T11:35:53.856Z,31.25
2022-08-11T11:36:53.845Z,31.22
2022-08-11T11:38:00.949Z,31.11
2022-08-11T11:38:53.821Z,30.93
2022-08-11T11:39:53.917Z,30.86
2022-08-11T11:40:53.795Z,30.59
2022-08-11T11:41:53.788Z,30.54
2022-08-11T11:42:53.779Z,30.55
2022-08-11T11:43:53.764Z,30.51
2022-08-11T11:44:55.973Z,30.24
2022-08-11T11:45:53.740Z,30.18
2022-08-11T11:46:53.724Z,30.13
2022-08-11T11:47:53.991Z,30.21
2022-08-11T11:48:53.709Z,30.26
2022-08-11T11:49:53.708Z,30.24
2022-08-11T11:50:56.802Z,30.35
2022-08-11T11:51:53.667Z,30.32
2022-08-11T11:52:53.699Z,30.21
2022-08-11T11:53:53.640Z,30.29
2022-08-11T11:54:53.632Z,30.18
2022-08-11T11:55:53.621Z,29.98
2022-08-11T11:56:53.605Z,29.89
2022-08-11T11:57:58.410Z,29.74
2022-08-11T11:58:53.578Z,29.71
2022-08-11T11:59:53.579Z,29.76
2022-08-11T12:00:53.563Z,29.84
2022-08-11T12:01:53.544Z,29.86
2022-08-11T12:02:53.551Z,29.89
2022-08-11T12:03:53.521Z,29.92
2022-08-11T12:04:53.507Z,29.90
2022-08-11T12:05:53.496Z,30.06
2022-08-11T12:06:53.501Z,30.06
2022-08-11T12:08:04.958Z,30.13
2022-08-11T12:08:53.458Z,30.14
2022-08-11T12:09:53.467Z,29.99
2022-08-11T12:10:53.497Z,30.06
2022-08-11T12:11:53.465Z,29.99
2022-08-11T12:12:53.409Z,30.03
2022-08-11T12:13:53.451Z,30.06
2022-08-11T12:14:53.403Z,30.02
2022-08-11T12:16:31.092Z,30.13
2022-08-11T12:16:53.373Z,30.11
2022-08-11T12:17:53.352Z,30.20
2022-08-11T12:18:53.508Z,30.02
2022-08-11T12:19:53.349Z,30.02
2022-08-11T12:20:53.309Z,30.10
2022-08-11T12:21:53.305Z,30.16
2022-08-11T12:22:53.282Z,30.17
2022-08-11T12:23:53.271Z,30.17
2022-08-11T12:24:53.259Z,30.11
2022-08-11T12:26:16.279Z,30.05
2022-08-11T12:27:15.039Z,30.02
2022-08-11T12:27:53.228Z,30.14
2022-08-11T12:28:53.211Z,30.03
2022-08-11T12:29:55.558Z,30.08
2022-08-11T12:30:54.185Z,29.98
2022-08-11T12:31:53.178Z,29.98
2022-08-11T12:32:53.236Z,30.05
2022-08-11T12:33:53.177Z,30.06
2022-08-11T12:34:53.175Z,30.01
2022-08-11T12:36:00.778Z,29.99
2022-08-11T12:36:53.241Z,30.01
2022-08-11T12:37:57.304Z,30.02
2022-08-11T12:38:53.131Z,30.05
2022-08-11T12:40:15.743Z,29.95
2022-08-11T12:41:15.545Z,30.05
2022-08-11T12:41:53.204Z,29.96
2022-08-11T12:42:55.492Z,29.98
2022-08-11T12:43:57.013Z,29.99
2022-08-11T12:44:53.130Z,30.02
2022-08-11T12:45:53.099Z,30.01
2022-08-11T12:46:53.068Z,30.03
2022-08-11T12:48:57.201Z,30.01
2022-08-11T12:48:58.999Z,29.99
2022-08-11T12:49:52.951Z,29.99
2022-08-11T12:50:52.940Z,29.86
2022-08-11T12:52:13.614Z,29.90
2022-08-11T12:52:52.932Z,29.92
2022-08-11T12:53:52.905Z,29.86
2022-08-11T12:54:52.917Z,29.73
2022-08-11T12:56:03.669Z,29.76
2022-08-11T12:56:52.963Z,29.68
2022-08-11T12:57:52.930Z,29.65
2022-08-11T12:58:52.956Z,29.64